createdAt,value
2018-06-09T00:00:20.948Z,20.20
2018-06-09T00:01:24.306Z,20.10
2018-06-09T00:02:27.656Z,20.20
2018-06-09T00:03:31.039Z,20.20
2018-06-09T00:04:34.399Z,20.10
2018-06-09T00:05:37.779Z,20.00
2018-06-09T00:06:41.113Z,20.00
2018-06-09T00:07:44.488Z,20.10
2018-06-09T00:08:47.843Z,20.10
2018-06-09T00:09:51.232Z,20.10
2018-06-09T00:10:54.753Z,20.10
2018-06-09T00:11:58.104Z,20.00
2018-06-09T00:13:01.485Z,20.00
2018-06-09T00:14:04.818Z,19.90
2018-06-09T00:15:08.173Z,19.90
2018-06-09T00:17:14.615Z,19.90
2018-06-09T00:18:17.963Z,19.90
2018-06-09T00:19:21.299Z,19.90
2018-06-09T00:20:24.660Z,19.90
2018-06-09T00:21:28.066Z,19.90
2018-06-09T00:22:31.436Z,19.80
2018-06-09T00:23:34.790Z,19.90
2018-06-09T00:24:38.119Z,19.90
2018-06-09T00:25:41.443Z,20.00
2018-06-09T00:26:45.667Z,20.00
2018-06-09T00:27:49.027Z,20.10
2018-06-09T00:28:52.380Z,20.10
2018-06-09T00:29:55.744Z,20.10
2018-06-09T00:30:59.153Z,20.00
2018-06-09T00:32:02.490Z,20.10
2018-06-09T00:33:05.833Z,20.00
2018-06-09T00:34:15.922Z,20.00
2018-06-09T00:35:19.279Z,20.00
2018-06-09T00:36:22.653Z,19.90
2018-06-09T00:37:26.024Z,19.80
2018-06-09T00:38:29.415Z,19.80
2018-06-09T00:39:32.762Z,19.70
2018-06-09T00:40:36.118Z,19.70
2018-06-09T00:41:39.512Z,19.70
2018-06-09T00:42:42.876Z,19.70
2018-06-09T00:44:55.928Z,19.70
2018-06-09T00:45:59.282Z,19.70
2018-06-09T00:47:02.663Z,19.80
2018-06-09T00:48:06.030Z,19.70
2018-06-09T00:49:09.376Z,19.70
2018-06-09T00:50:12.728Z,19.70
2018-06-09T00:51:16.103Z,19.60
2018-06-09T00:52:19.483Z,19.60
2018-06-09T00:53:22.840Z,19.40
2018-06-09T00:54:26.251Z,19.50
2018-06-09T00:55:29.601Z,19.40
2018-06-09T00:56:43.525Z,19.40
2018-06-09T00:57:46.859Z,19.30
2018-06-09T00:58:50.202Z,19.40
2018-06-09T00:59:53.575Z,19.30
2018-06-09T01:00:56.922Z,19.30
2018-06-09T01:02:00.272Z,19.30
2018-06-09T01:03:03.630Z,19.10
2018-06-09T01:04:07.205Z,19.00
2018-06-09T01:05:10.600Z,19.00
2018-06-09T01:06:13.935Z,19.10
2018-06-09T01:07:17.344Z,19.00
2018-06-09T01:08:20.672Z,19.00
2018-06-09T01:09:24.018Z,19.00
2018-06-09T01:10:27.376Z,19.00
2018-06-09T01:11:30.859Z,19.00
2018-06-09T01:12:34.246Z,19.00
2018-06-09T01:13:37.592Z,19.00
2018-06-09T01:14:40.986Z,19.10
2018-06-09T01:15:44.336Z,19.10
2018-06-09T01:16:47.699Z,19.10
2018-06-09T01:17:51.051Z,19.20
2018-06-09T01:18:54.398Z,19.20
2018-06-09T01:19:57.783Z,19.20
2018-06-09T01:21:01.144Z,19.20
2018-06-09T01:22:04.561Z,19.30
2018-06-09T01:23:07.908Z,19.30
2018-06-09T01:24:11.286Z,19.40
2018-06-09T01:25:14.619Z,19.40
2018-06-09T01:26:17.984Z,19.30
2018-06-09T01:27:21.337Z,19.40
2018-06-09T01:28:24.689Z,19.40
2018-06-09T01:29:28.076Z,19.40
2018-06-09T01:30:31.415Z,19.40
2018-06-09T01:31:34.787Z,19.40
2018-06-09T01:32:38.136Z,19.40
2018-06-09T01:33:41.517Z,19.40
2018-06-09T01:34:44.890Z,19.40
2018-06-09T01:35:48.233Z,19.40
2018-06-09T01:36:51.575Z,19.40
2018-06-09T01:37:54.921Z,19.40
2018-06-09T01:38:58.307Z,19.30
2018-06-09T01:40:01.675Z,19.20
2018-06-09T01:41:05.379Z,19.20
2018-06-09T01:42:08.736Z,19.20
2018-06-09T01:43:12.100Z,19.20
2018-06-09T01:44:15.478Z,19.20
2018-06-09T01:45:18.822Z,19.20
2018-06-09T01:46:22.179Z,19.20
2018-06-09T01:47:25.599Z,19.20
2018-06-09T01:48:28.942Z,19.20
2018-06-09T01:49:32.345Z,19.20
2018-06-09T01:50:35.687Z,19.30
2018-06-09T01:51:39.035Z,19.30
2018-06-09T01:53:45.427Z,19.20
2018-06-09T01:54:48.826Z,19.20
2018-06-09T01:55:52.191Z,19.20
2018-06-09T01:56:55.539Z,19.20
2018-06-09T01:57:58.879Z,19.20
2018-06-09T01:59:02.219Z,19.20
2018-06-09T02:00:05.631Z,19.20
2018-06-09T02:01:08.976Z,19.20
2018-06-09T02:02:12.344Z,19.20
2018-06-09T02:03:15.704Z,19.30
2018-06-09T02:04:19.078Z,19.30
2018-06-09T02:05:22.456Z,19.30
2018-06-09T02:06:25.855Z,19.30
2018-06-09T02:07:29.189Z,19.30
2018-06-09T02:08:32.533Z,19.30
2018-06-09T02:09:35.892Z,19.20
2018-06-09T02:10:39.232Z,19.20
2018-06-09T02:11:42.618Z,19.20
2018-06-09T02:12:45.995Z,19.20
2018-06-09T02:13:49.346Z,19.20
2018-06-09T02:14:52.671Z,19.20
2018-06-09T02:15:56.011Z,19.20
2018-06-09T02:16:59.375Z,19.30
2018-06-09T02:18:02.717Z,19.20
2018-06-09T02:19:06.059Z,19.20
2018-06-09T02:20:09.412Z,19.20
2018-06-09T02:21:12.756Z,19.20
2018-06-09T02:22:16.122Z,19.20
2018-06-09T02:23:19.509Z,19.20
2018-06-09T02:24:22.836Z,19.10
2018-06-09T02:25:26.184Z,19.20
2018-06-09T02:26:29.538Z,19.10
2018-06-09T02:27:33.277Z,19.10
2018-06-09T02:28:36.676Z,19.10
2018-06-09T02:29:40.016Z,19.00
2018-06-09T02:30:43.369Z,19.00
2018-06-09T02:31:46.732Z,19.00
2018-06-09T02:32:50.073Z,18.90
2018-06-09T02:33:53.453Z,19.00
2018-06-09T02:34:56.789Z,18.90
2018-06-09T02:36:00.123Z,18.90
2018-06-09T02:37:03.452Z,18.90
2018-06-09T02:38:06.803Z,18.80
2018-06-09T02:39:10.203Z,18.90
2018-06-09T02:40:13.565Z,18.80
2018-06-09T02:41:16.933Z,18.90
2018-06-09T02:42:20.282Z,18.90
2018-06-09T02:43:23.624Z,18.80
2018-06-09T02:44:26.984Z,18.70
2018-06-09T02:45:30.336Z,18.70
2018-06-09T02:46:33.685Z,18.70
2018-06-09T02:47:37.028Z,18.70
2018-06-09T02:48:40.378Z,18.70
2018-06-09T02:49:43.747Z,18.60
2018-06-09T02:50:47.090Z,18.70
2018-06-09T02:51:50.419Z,18.70
2018-06-09T02:52:53.756Z,18.60
2018-06-09T02:53:57.098Z,18.60
2018-06-09T02:55:06.923Z,18.50
2018-06-09T02:56:10.292Z,18.40
2018-06-09T02:57:13.676Z,18.30
2018-06-09T02:59:20.083Z,18.40
2018-06-09T03:00:23.439Z,18.40
2018-06-09T03:01:26.781Z,18.50
2018-06-09T03:02:30.137Z,18.50
2018-06-09T03:03:33.471Z,18.50
2018-06-09T03:04:36.802Z,18.40
2018-06-09T03:05:40.207Z,18.30
2018-06-09T03:06:43.527Z,18.20
2018-06-09T03:07:46.868Z,18.10
2018-06-09T03:08:50.184Z,18.00
2018-06-09T03:09:53.517Z,17.90
2018-06-09T03:10:56.873Z,17.80
2018-06-09T03:12:00.207Z,17.90
2018-06-09T03:13:03.555Z,17.90
2018-06-09T03:14:06.926Z,17.90
2018-06-09T03:15:10.259Z,17.90
2018-06-09T03:16:13.622Z,18.00
2018-06-09T03:17:16.968Z,18.00
2018-06-09T03:18:20.306Z,18.10
2018-06-09T03:19:23.688Z,18.20
2018-06-09T03:20:27.064Z,18.30
2018-06-09T03:21:30.408Z,18.30
2018-06-09T03:22:33.757Z,18.40
2018-06-09T03:23:37.120Z,18.40
2018-06-09T03:24:40.459Z,18.40
2018-06-09T03:25:43.824Z,18.50
2018-06-09T03:26:47.179Z,18.50
2018-06-09T03:27:50.515Z,18.60
2018-06-09T03:28:53.892Z,18.50
2018-06-09T03:29:57.259Z,18.60
2018-06-09T03:31:00.603Z,18.60
2018-06-09T03:32:03.984Z,18.60
2018-06-09T03:33:07.347Z,18.70
2018-06-09T03:34:10.688Z,18.60
2018-06-09T03:35:14.081Z,18.60
2018-06-09T03:36:17.411Z,18.60
2018-06-09T03:37:20.748Z,18.60
2018-06-09T03:38:24.082Z,18.60
2018-06-09T03:39:27.417Z,18.60
2018-06-09T03:40:30.815Z,18.50
2018-06-09T03:41:34.271Z,18.50
2018-06-09T03:42:37.618Z,18.40
2018-06-09T03:43:40.955Z,18.40
2018-06-09T03:44:44.285Z,18.30
2018-06-09T03:45:47.647Z,18.30
2018-06-09T03:46:50.982Z,18.30
2018-06-09T03:47:54.328Z,18.30
2018-06-09T03:48:57.664Z,18.30
2018-06-09T03:50:01.025Z,18.30
2018-06-09T03:52:07.495Z,18.20
2018-06-09T03:54:13.870Z,18.30
2018-06-09T03:55:17.202Z,18.20
2018-06-09T03:56:20.526Z,18.20
2018-06-09T03:57:23.916Z,18.20
2018-06-09T03:58:27.258Z,18.20
2018-06-09T03:59:30.606Z,18.30
2018-06-09T04:00:33.927Z,18.20
2018-06-09T04:01:37.268Z,18.20
2018-06-09T04:02:40.628Z,18.10
2018-06-09T04:03:44.025Z,18.10
2018-06-09T04:04:47.352Z,18.20
2018-06-09T04:05:50.684Z,18.10
2018-06-09T04:06:54.070Z,18.00
2018-06-09T04:07:57.419Z,18.00
2018-06-09T04:09:00.805Z,18.10
2018-06-09T04:10:04.165Z,18.10
2018-06-09T04:11:07.513Z,18.10
2018-06-09T04:12:10.859Z,18.10
2018-06-09T04:13:14.194Z,18.10
2018-06-09T04:14:17.566Z,18.10
2018-06-09T04:15:20.935Z,18.10
2018-06-09T04:16:24.313Z,18.10
2018-06-09T04:17:27.650Z,18.10
2018-06-09T04:18:31.008Z,18.20
2018-06-09T04:20:37.524Z,18.30
2018-06-09T04:21:40.832Z,18.30
2018-06-09T04:22:44.187Z,18.40
2018-06-09T04:23:47.560Z,18.30
2018-06-09T04:24:50.916Z,18.40
2018-06-09T04:25:54.283Z,18.40
2018-06-09T04:26:57.630Z,18.50
2018-06-09T04:28:00.960Z,18.60
2018-06-09T04:29:04.304Z,18.60
2018-06-09T04:30:07.638Z,18.60
2018-06-09T04:31:11.067Z,18.70
2018-06-09T04:32:14.405Z,18.70
2018-06-09T04:33:17.760Z,18.80
2018-06-09T04:34:21.101Z,18.90
2018-06-09T04:35:24.438Z,19.00
2018-06-09T04:36:27.829Z,19.00
2018-06-09T04:37:31.168Z,19.10
2018-06-09T04:38:34.519Z,19.10
2018-06-09T04:39:37.879Z,19.10
2018-06-09T04:40:41.256Z,19.10
2018-06-09T04:41:44.633Z,19.10
2018-06-09T04:42:47.978Z,19.10
2018-06-09T04:43:51.336Z,19.10
2018-06-09T04:44:54.694Z,19.20
2018-06-09T04:45:58.134Z,19.30
2018-06-09T04:47:01.452Z,19.30
2018-06-09T04:48:04.878Z,19.30
2018-06-09T04:49:08.227Z,19.30
2018-06-09T04:50:11.556Z,19.30
2018-06-09T04:51:14.966Z,19.40
2018-06-09T04:52:18.369Z,19.50
2018-06-09T04:54:24.760Z,19.30
2018-06-09T04:55:28.099Z,19.20
2018-06-09T04:56:31.478Z,19.30
2018-06-09T04:57:34.851Z,19.30
2018-06-09T04:58:38.207Z,19.30
2018-06-09T04:59:41.563Z,19.40
2018-06-09T05:00:44.953Z,19.40
2018-06-09T05:01:48.335Z,19.40
2018-06-09T05:02:51.718Z,19.40
2018-06-09T05:03:55.060Z,19.50
2018-06-09T05:04:58.425Z,19.50
2018-06-09T05:06:01.833Z,19.60
2018-06-09T05:07:05.200Z,19.60
2018-06-09T05:08:08.541Z,19.60
2018-06-09T05:09:11.878Z,19.60
2018-06-09T05:10:15.220Z,19.50
2018-06-09T05:11:18.607Z,19.60
2018-06-09T05:12:21.928Z,19.70
2018-06-09T05:13:25.269Z,19.70
2018-06-09T05:14:28.616Z,19.70
2018-06-09T05:15:31.952Z,19.70
2018-06-09T05:16:35.307Z,19.80
2018-06-09T05:17:38.641Z,19.90
2018-06-09T05:18:41.975Z,19.90
2018-06-09T05:19:45.315Z,20.00
2018-06-09T05:20:48.672Z,20.00
2018-06-09T05:21:52.045Z,20.10
2018-06-09T05:22:55.373Z,20.20
2018-06-09T05:23:58.705Z,20.20
2018-06-09T05:25:02.041Z,20.40
2018-06-09T05:26:05.381Z,20.50
2018-06-09T05:27:08.756Z,20.60
2018-06-09T05:28:12.143Z,20.60
2018-06-09T05:29:15.463Z,20.40
2018-06-09T05:30:18.811Z,20.60
2018-06-09T05:31:22.139Z,20.40
2018-06-09T05:32:25.512Z,20.30
2018-06-09T05:33:28.891Z,20.40
2018-06-09T05:34:32.243Z,20.50
2018-06-09T05:35:35.576Z,20.60
2018-06-09T05:36:38.902Z,20.70
2018-06-09T05:37:42.233Z,20.60
2018-06-09T05:38:45.594Z,20.70
2018-06-09T05:39:48.939Z,20.90
2018-06-09T05:40:52.282Z,20.90
2018-06-09T05:41:55.609Z,20.80
2018-06-09T05:42:58.959Z,20.80
2018-06-09T05:44:02.468Z,20.90
2018-06-09T05:45:05.827Z,20.90
2018-06-09T05:46:09.164Z,21.00
2018-06-09T05:47:12.502Z,21.10
2018-06-09T05:48:15.855Z,21.10
2018-06-09T05:49:19.214Z,21.10
2018-06-09T05:50:22.615Z,21.10
2018-06-09T05:51:25.954Z,21.20
2018-06-09T05:52:29.271Z,21.20
2018-06-09T05:53:32.610Z,21.20
2018-06-09T05:54:35.986Z,21.00
2018-06-09T05:55:39.419Z,20.90
2018-06-09T05:56:42.708Z,20.80
2018-06-09T05:57:46.052Z,20.90
2018-06-09T05:58:49.450Z,21.00
2018-06-09T05:59:52.796Z,21.10
2018-06-09T06:00:56.136Z,21.20
2018-06-09T06:01:59.472Z,21.30
2018-06-09T06:03:02.851Z,21.30
2018-06-09T06:04:06.241Z,21.40
2018-06-09T06:05:09.609Z,21.40
2018-06-09T06:06:12.954Z,21.40
2018-06-09T06:07:16.290Z,21.40
2018-06-09T06:08:19.679Z,21.40
2018-06-09T06:09:23.035Z,21.40
2018-06-09T06:10:26.368Z,21.40
2018-06-09T06:11:29.723Z,21.40
2018-06-09T06:12:33.059Z,21.30
2018-06-09T06:13:36.394Z,21.40
2018-06-09T06:14:39.780Z,21.40
2018-06-09T06:15:43.131Z,21.40
2018-06-09T06:16:46.492Z,21.50
2018-06-09T06:17:49.836Z,21.50
2018-06-09T06:18:53.189Z,21.50
2018-06-09T06:19:56.568Z,21.60
2018-06-09T06:20:59.905Z,21.60
2018-06-09T06:23:06.363Z,21.60
2018-06-09T06:24:09.707Z,21.60
2018-06-09T06:25:13.048Z,21.60
2018-06-09T06:26:16.371Z,21.60
2018-06-09T06:27:19.724Z,21.40
2018-06-09T06:28:23.063Z,21.40
2018-06-09T06:29:26.400Z,21.50
2018-06-09T06:30:29.753Z,21.40
2018-06-09T06:31:33.148Z,21.30
2018-06-09T06:32:36.495Z,21.40
2018-06-09T06:33:39.829Z,21.30
2018-06-09T06:34:43.175Z,21.20
2018-06-09T06:35:46.543Z,21.30
2018-06-09T06:36:49.876Z,21.30
2018-06-09T06:37:53.219Z,21.20
2018-06-09T06:38:56.692Z,21.30
2018-06-09T06:40:00.040Z,21.30
2018-06-09T06:41:03.489Z,21.40
2018-06-09T06:42:06.850Z,21.30
2018-06-09T06:43:10.229Z,21.40
2018-06-09T06:44:13.624Z,21.40
2018-06-09T06:45:16.975Z,21.30
2018-06-09T06:46:20.331Z,21.30
2018-06-09T06:47:23.664Z,21.40
2018-06-09T06:48:27.011Z,21.30
2018-06-09T06:49:30.396Z,21.20
2018-06-09T06:50:33.748Z,21.30
2018-06-09T06:51:37.078Z,21.30
2018-06-09T06:52:40.419Z,21.40
2018-06-09T06:53:43.775Z,21.40
2018-06-09T06:54:47.156Z,21.60
2018-06-09T06:55:50.491Z,21.60
2018-06-09T06:56:53.842Z,21.60
2018-06-09T06:57:57.209Z,21.80
2018-06-09T06:59:00.565Z,21.90
2018-06-09T07:00:03.976Z,22.00
2018-06-09T07:01:07.327Z,22.00
2018-06-09T07:02:10.774Z,22.10
2018-06-09T07:03:14.086Z,22.20
2018-06-09T07:04:17.455Z,22.40
2018-06-09T07:05:20.816Z,22.50
2018-06-09T07:06:24.183Z,22.60
2018-06-09T07:07:27.524Z,22.70
2018-06-09T07:08:30.850Z,22.70
2018-06-09T07:09:34.215Z,22.70
2018-06-09T07:10:37.564Z,22.80
2018-06-09T07:11:40.920Z,22.90
2018-06-09T07:12:44.259Z,22.90
2018-06-09T07:13:47.652Z,22.90
2018-06-09T07:14:51.024Z,22.90
2018-06-09T07:15:54.377Z,23.00
2018-06-09T07:16:57.728Z,23.00
2018-06-09T07:18:01.066Z,23.00
2018-06-09T07:19:04.451Z,23.00
2018-06-09T07:20:07.807Z,23.10
2018-06-09T07:21:11.157Z,23.10
2018-06-09T07:22:14.545Z,23.20
2018-06-09T07:23:17.896Z,23.10
2018-06-09T07:24:21.295Z,23.20
2018-06-09T07:25:24.668Z,23.30
2018-06-09T07:26:28.076Z,23.40
2018-06-09T07:27:31.559Z,23.40
2018-06-09T07:28:34.902Z,23.50
2018-06-09T07:29:38.253Z,23.50
2018-06-09T07:30:41.670Z,23.50
2018-06-09T07:31:45.022Z,23.60
2018-06-09T07:32:48.399Z,23.80
2018-06-09T07:33:51.782Z,23.80
2018-06-09T07:34:55.111Z,23.90
2018-06-09T07:35:58.458Z,24.00
2018-06-09T07:37:01.860Z,24.00
2018-06-09T07:38:05.200Z,24.10
2018-06-09T07:39:08.578Z,24.10
2018-06-09T07:40:11.931Z,24.00
2018-06-09T07:41:15.279Z,24.00
2018-06-09T07:42:18.632Z,24.00
2018-06-09T07:43:22.010Z,24.10
2018-06-09T07:44:25.398Z,24.10
2018-06-09T07:45:28.750Z,24.30
2018-06-09T07:46:32.109Z,24.30
2018-06-09T07:47:35.425Z,24.20
2018-06-09T07:48:38.792Z,24.20
2018-06-09T07:50:45.219Z,24.50
2018-06-09T07:51:48.595Z,24.40
2018-06-09T07:52:51.942Z,24.50
2018-06-09T07:53:55.287Z,24.50
2018-06-09T07:54:58.636Z,24.60
2018-06-09T07:56:01.989Z,24.70
2018-06-09T07:57:05.378Z,24.60
2018-06-09T07:58:08.731Z,24.60
2018-06-09T07:59:12.095Z,24.50
2018-06-09T08:00:15.447Z,24.50
2018-06-09T08:01:18.799Z,24.50
2018-06-09T08:02:22.191Z,24.50
2018-06-09T08:03:25.544Z,24.60
2018-06-09T08:04:28.940Z,24.70
2018-06-09T08:05:32.311Z,24.70
2018-06-09T08:06:35.671Z,24.80
2018-06-09T08:07:39.040Z,25.00
2018-06-09T08:08:42.380Z,25.20
2018-06-09T08:09:45.741Z,25.10
2018-06-09T08:10:49.064Z,25.30
2018-06-09T08:11:52.472Z,25.30
2018-06-09T08:12:55.853Z,25.40
2018-06-09T08:13:59.231Z,25.50
2018-06-09T08:15:02.576Z,25.50
2018-06-09T08:16:05.923Z,25.50
2018-06-09T08:17:09.402Z,25.50
2018-06-09T08:18:12.762Z,25.60
2018-06-09T08:19:16.098Z,25.60
2018-06-09T08:20:19.436Z,25.60
2018-06-09T08:21:22.759Z,25.60
2018-06-09T08:22:26.128Z,25.70
2018-06-09T08:23:29.484Z,25.80
2018-06-09T08:24:32.870Z,25.90
2018-06-09T08:25:36.205Z,25.90
2018-06-09T08:26:39.537Z,25.90
2018-06-09T08:27:42.933Z,25.80
2018-06-09T08:28:46.271Z,25.80
2018-06-09T08:29:49.651Z,26.00
2018-06-09T08:30:53.017Z,26.10
2018-06-09T08:31:56.368Z,26.00
2018-06-09T08:32:59.699Z,26.00
2018-06-09T08:34:03.078Z,26.00
2018-06-09T08:35:06.416Z,26.10
2018-06-09T08:36:09.798Z,26.00
2018-06-09T08:37:13.160Z,26.20
2018-06-09T08:38:16.505Z,26.20
2018-06-09T08:39:19.829Z,26.30
2018-06-09T08:40:23.194Z,26.40
2018-06-09T08:41:26.558Z,26.30
2018-06-09T08:42:29.918Z,26.30
2018-06-09T08:43:33.260Z,26.30
2018-06-09T08:44:36.596Z,26.30
2018-06-09T08:45:39.965Z,26.40
2018-06-09T08:46:43.316Z,26.40
2018-06-09T08:47:46.679Z,26.50
2018-06-09T08:48:50.020Z,26.60
2018-06-09T08:49:53.359Z,26.70
2018-06-09T08:50:56.687Z,26.70
2018-06-09T08:52:00.030Z,26.80
2018-06-09T08:53:03.408Z,26.90
2018-06-09T08:54:06.764Z,26.90
2018-06-09T08:55:10.161Z,26.90
2018-06-09T08:56:13.516Z,27.00
2018-06-09T08:57:16.887Z,27.20
2018-06-09T08:58:20.330Z,27.10
2018-06-09T08:59:23.666Z,27.20
2018-06-09T09:00:27.027Z,27.20
2018-06-09T09:01:30.415Z,27.20
2018-06-09T09:02:33.757Z,27.30
2018-06-09T09:03:37.100Z,27.30
2018-06-09T09:04:40.431Z,27.50
2018-06-09T09:05:43.768Z,27.60
2018-06-09T09:06:47.149Z,27.50
2018-06-09T09:07:50.518Z,27.40
2018-06-09T09:08:53.865Z,27.50
2018-06-09T09:09:57.221Z,27.50
2018-06-09T09:11:00.539Z,27.60
2018-06-09T09:12:03.887Z,27.70
2018-06-09T09:13:07.210Z,27.80
2018-06-09T09:14:10.560Z,27.90
2018-06-09T09:15:13.923Z,27.90
2018-06-09T09:16:17.263Z,28.00
2018-06-09T09:17:20.757Z,28.10
2018-06-09T09:18:24.106Z,28.10
2018-06-09T09:19:27.467Z,28.10
2018-06-09T09:20:30.798Z,28.00
2018-06-09T09:21:34.124Z,28.00
2018-06-09T09:22:37.457Z,27.90
2018-06-09T09:23:40.783Z,27.90
2018-06-09T09:24:44.275Z,28.00
2018-06-09T09:25:47.659Z,27.80
2018-06-09T09:26:51.022Z,27.90
2018-06-09T09:27:54.356Z,28.00
2018-06-09T09:28:57.715Z,28.10
2018-06-09T09:30:01.067Z,28.20
2018-06-09T09:31:04.439Z,28.20
2018-06-09T09:32:07.823Z,28.10
2018-06-09T09:33:11.131Z,28.10
2018-06-09T09:34:14.452Z,28.10
2018-06-09T09:35:17.820Z,28.10
2018-06-09T09:36:21.218Z,28.00
2018-06-09T09:37:24.555Z,28.10
2018-06-09T09:38:27.931Z,28.30
2018-06-09T09:39:31.322Z,28.30
2018-06-09T09:40:34.662Z,28.50
2018-06-09T09:41:38.025Z,28.50
2018-06-09T09:42:41.395Z,28.80
2018-06-09T09:43:44.726Z,28.80
2018-06-09T09:44:48.091Z,28.80
2018-06-09T09:45:51.449Z,28.80
2018-06-09T09:46:54.813Z,28.80
2018-06-09T09:47:58.153Z,28.90
2018-06-09T09:49:01.500Z,28.90
2018-06-09T09:50:04.874Z,29.00
2018-06-09T09:51:08.264Z,28.90
2018-06-09T09:52:11.602Z,28.80
2018-06-09T09:53:14.949Z,28.80
2018-06-09T09:54:18.268Z,28.90
2018-06-09T09:55:21.620Z,29.00
2018-06-09T09:56:25.000Z,29.20
2018-06-09T09:57:28.326Z,29.20
2018-06-09T09:58:31.665Z,29.30
2018-06-09T09:59:35.001Z,29.40
2018-06-09T10:00:39.051Z,29.40
2018-06-09T10:01:42.412Z,29.40
2018-06-09T10:02:45.751Z,29.30
2018-06-09T10:03:49.078Z,29.40
2018-06-09T10:04:52.436Z,29.50
2018-06-09T10:05:55.801Z,29.60
2018-06-09T10:06:59.142Z,29.40
2018-06-09T10:08:02.512Z,29.50
2018-06-09T10:09:08.042Z,29.60
2018-06-09T10:10:11.393Z,29.70
2018-06-09T10:11:14.731Z,29.70
2018-06-09T10:12:18.081Z,29.70
2018-06-09T10:13:21.460Z,29.70
2018-06-09T10:14:24.830Z,29.80
2018-06-09T10:15:28.202Z,30.00
2018-06-09T10:16:31.572Z,30.10
2018-06-09T10:17:34.907Z,30.10
2018-06-09T10:18:38.267Z,30.30
2018-06-09T10:19:41.593Z,30.40
2018-06-09T10:20:44.960Z,30.40
2018-06-09T10:21:48.328Z,30.50
2018-06-09T10:22:51.667Z,30.50
2018-06-09T10:23:54.998Z,30.50
2018-06-09T10:24:58.347Z,30.60
2018-06-09T10:26:01.716Z,30.50
2018-06-09T10:27:05.090Z,30.50
2018-06-09T10:28:08.471Z,30.50
2018-06-09T10:29:11.830Z,30.60
2018-06-09T10:30:15.167Z,30.70
2018-06-09T10:31:18.495Z,30.70
2018-06-09T10:32:21.832Z,30.70
2018-06-09T10:33:25.203Z,30.70
2018-06-09T10:34:28.532Z,30.70
2018-06-09T10:35:31.884Z,30.80
2018-06-09T10:36:35.267Z,30.90
2018-06-09T10:37:38.616Z,30.90
2018-06-09T10:38:41.979Z,31.10
2018-06-09T10:39:45.307Z,30.90
2018-06-09T10:40:48.643Z,31.10
2018-06-09T10:41:52.140Z,30.90
2018-06-09T10:42:55.471Z,31.00
2018-06-09T10:43:58.804Z,31.00
2018-06-09T10:45:02.146Z,31.10
2018-06-09T10:46:05.481Z,31.20
2018-06-09T10:47:08.828Z,31.10
2018-06-09T10:48:12.167Z,31.20
2018-06-09T10:49:15.502Z,31.30
2018-06-09T10:50:18.855Z,31.30
2018-06-09T10:51:22.201Z,31.30
2018-06-09T10:52:25.609Z,31.30
2018-06-09T10:53:29.014Z,31.20
2018-06-09T10:54:32.341Z,31.30
2018-06-09T10:55:35.731Z,31.30
2018-06-09T10:56:39.036Z,31.10
2018-06-09T10:58:45.527Z,31.30
2018-06-09T10:59:48.863Z,31.30
2018-06-09T11:00:52.199Z,31.40
2018-06-09T11:01:55.519Z,31.40
2018-06-09T11:02:58.900Z,31.30
2018-06-09T11:04:02.247Z,31.30
2018-06-09T11:05:05.604Z,31.40
2018-06-09T11:06:08.939Z,31.50
2018-06-09T11:07:12.328Z,31.50
2018-06-09T11:08:15.665Z,31.60
2018-06-09T11:09:19.000Z,31.60
2018-06-09T11:10:22.355Z,31.70
2018-06-09T11:11:25.728Z,31.60
2018-06-09T11:13:32.203Z,31.30
2018-06-09T11:14:35.541Z,31.20
2018-06-09T11:15:38.863Z,31.20
2018-06-09T11:16:42.213Z,31.30
2018-06-09T11:17:45.549Z,31.50
2018-06-09T11:18:48.891Z,31.50
2018-06-09T11:19:52.232Z,31.60
2018-06-09T11:20:55.571Z,31.60
2018-06-09T11:21:58.954Z,31.70
2018-06-09T11:23:02.359Z,31.70
2018-06-09T11:24:05.807Z,31.70
2018-06-09T11:25:09.135Z,31.70
2018-06-09T11:26:12.524Z,31.80
2018-06-09T11:27:15.883Z,31.80
2018-06-09T11:28:19.293Z,32.00
2018-06-09T11:29:22.627Z,32.00
2018-06-09T11:30:25.999Z,32.00
2018-06-09T11:31:29.345Z,31.90
2018-06-09T11:32:32.732Z,31.60
2018-06-09T11:34:39.145Z,31.60
2018-06-09T11:35:42.475Z,31.60
2018-06-09T11:36:45.814Z,31.80
2018-06-09T11:37:49.197Z,31.80
2018-06-09T11:38:52.540Z,31.90
2018-06-09T11:39:55.881Z,32.00
2018-06-09T11:40:59.230Z,32.10
2018-06-09T11:42:02.617Z,32.20
2018-06-09T11:43:06.083Z,32.30
2018-06-09T11:45:12.568Z,32.00
2018-06-09T11:46:15.909Z,32.20
2018-06-09T11:47:19.276Z,32.30
2018-06-09T11:48:22.656Z,32.30
2018-06-09T11:49:25.990Z,32.20
2018-06-09T11:50:29.344Z,32.20
2018-06-09T11:52:42.404Z,32.40
2018-06-09T11:53:45.739Z,32.40
2018-06-09T11:54:49.121Z,32.50
2018-06-09T11:55:52.468Z,32.40
2018-06-09T11:56:55.808Z,32.40
2018-06-09T11:57:59.153Z,32.60
2018-06-09T11:59:02.491Z,32.70
2018-06-09T12:00:05.894Z,32.60
2018-06-09T12:01:09.268Z,32.80
2018-06-09T12:02:12.628Z,32.50
2018-06-09T12:03:15.958Z,32.50
2018-06-09T12:04:19.298Z,32.40
2018-06-09T12:05:22.663Z,32.20
2018-06-09T12:06:26.043Z,32.30
2018-06-09T12:07:29.374Z,32.30
2018-06-09T12:08:32.709Z,32.20
2018-06-09T12:09:36.057Z,32.10
2018-06-09T12:10:39.413Z,32.10
2018-06-09T12:12:52.447Z,32.20
2018-06-09T12:13:55.855Z,32.30
2018-06-09T12:14:59.194Z,32.30
2018-06-09T12:16:02.544Z,32.20
2018-06-09T12:17:06.134Z,31.90
2018-06-09T12:18:09.534Z,31.90
2018-06-09T12:19:12.884Z,31.60
2018-06-09T12:20:16.210Z,31.80
2018-06-09T12:21:19.544Z,31.80
2018-06-09T12:22:22.909Z,31.90
2018-06-09T12:23:26.299Z,32.10
2018-06-09T12:24:29.632Z,32.20
2018-06-09T12:25:32.979Z,32.10
2018-06-09T12:26:36.323Z,31.90
2018-06-09T12:27:39.703Z,31.90
2018-06-09T12:28:43.120Z,31.80
2018-06-09T12:29:46.516Z,31.80
2018-06-09T12:30:49.852Z,31.70
2018-06-09T12:31:53.280Z,31.80
2018-06-09T12:32:56.615Z,31.70
2018-06-09T12:33:59.992Z,31.70
2018-06-09T12:35:03.352Z,31.70
2018-06-09T12:36:06.748Z,31.80
2018-06-09T12:37:10.096Z,31.70
2018-06-09T12:38:13.452Z,31.70
2018-06-09T12:39:16.851Z,31.40
2018-06-09T12:40:20.263Z,31.10
2018-06-09T12:41:23.579Z,30.80
2018-06-09T12:42:26.947Z,30.90
2018-06-09T12:43:30.269Z,30.80
2018-06-09T12:44:33.595Z,31.00
2018-06-09T12:45:36.959Z,31.40
2018-06-09T12:46:40.303Z,31.60
2018-06-09T12:47:43.620Z,31.70
2018-06-09T12:48:47.011Z,31.90
2018-06-09T12:49:50.301Z,31.90
2018-06-09T12:50:53.635Z,31.80
2018-06-09T12:51:57.015Z,32.00
2018-06-09T12:53:00.370Z,32.10
2018-06-09T12:54:03.688Z,32.20
2018-06-09T12:55:07.025Z,32.50
2018-06-09T12:56:10.362Z,32.80
2018-06-09T12:57:13.740Z,33.00
2018-06-09T12:58:17.068Z,33.10
2018-06-09T12:59:20.401Z,33.20
2018-06-09T13:00:23.741Z,33.00
2018-06-09T13:01:27.118Z,33.10
2018-06-09T13:02:30.470Z,33.20
2018-06-09T13:03:33.788Z,33.30
2018-06-09T13:04:37.161Z,33.40
2018-06-09T13:05:40.499Z,33.50
2018-06-09T13:06:43.835Z,33.60
2018-06-09T13:07:47.169Z,33.70
2018-06-09T13:08:50.504Z,33.30
2018-06-09T13:09:53.876Z,32.60
2018-06-09T13:10:57.211Z,32.50
2018-06-09T13:12:00.542Z,32.80
2018-06-09T13:13:03.923Z,32.80
2018-06-09T13:14:07.313Z,32.60
2018-06-09T13:15:10.632Z,32.80
2018-06-09T13:16:14.037Z,33.10
2018-06-09T13:17:17.383Z,33.20
2018-06-09T13:18:20.760Z,33.40
2018-06-09T13:19:24.107Z,33.10
2018-06-09T13:20:27.439Z,33.00
2018-06-09T13:21:30.775Z,32.90
2018-06-09T13:22:34.098Z,32.80
2018-06-09T13:23:37.458Z,32.20
2018-06-09T13:24:40.784Z,32.00
2018-06-09T13:25:44.099Z,32.00
2018-06-09T13:26:47.416Z,32.20
2018-06-09T13:27:50.767Z,32.30
2018-06-09T13:28:54.099Z,32.30
2018-06-09T13:29:57.457Z,32.20
2018-06-09T13:31:00.829Z,31.80
2018-06-09T13:32:04.152Z,31.30
2018-06-09T13:33:07.489Z,31.00
2018-06-09T13:34:10.888Z,30.80
2018-06-09T13:35:14.228Z,30.70
2018-06-09T13:36:17.556Z,30.60
2018-06-09T13:37:20.895Z,30.50
2018-06-09T13:38:24.216Z,30.50
2018-06-09T13:39:27.578Z,30.60
2018-06-09T13:40:30.915Z,30.70
2018-06-09T13:41:34.499Z,30.80
2018-06-09T13:42:37.815Z,30.70
2018-06-09T13:43:41.161Z,30.80
2018-06-09T13:44:44.532Z,31.00
2018-06-09T13:45:47.846Z,31.30
2018-06-09T13:46:51.257Z,31.60
2018-06-09T13:47:54.566Z,31.90
2018-06-09T13:48:57.892Z,32.10
2018-06-09T13:50:01.257Z,32.40
2018-06-09T13:51:04.620Z,32.40
2018-06-09T13:52:07.975Z,32.50
2018-06-09T13:53:11.364Z,32.50